Time,TemperatureF,DewpointF,PressureIn,WindDirection,WindDirectionDegrees,WindSpeedMPH,WindSpeedGustMPH,Humidity,HourlyPrecipIn,Conditions,Clouds,dailyrainin,SoftwareType,DateUTC
2016-08-31 00:01:00,71.4,68.0,30.02,SSW,196,0.0,0.0,89,0.00,CLR,SCT,0.00,WeatherDisplay:10.37,2016-08-31 04:01:00,
2016-08-31 00:06:00,71.3,67.9,30.02,SSW,196,0.0,0.0,89,0.00,CLR,SCT,0.00,WeatherDisplay:10.37,2016-08-31 04:06:00,
2016-08-31 00:11:00,71.2,68.1,30.02,North,0,0.0,0.0,90,0.00,CLR,SCT,0.00,WeatherDisplay:10.37,2016-08-31 04:11:00,
2016-08-31 00:16:00,71.3,68.2,30.02,North,0,0.0,0.0,90,0.00,CLR,SCT,0.00,WeatherDisplay:10.37,2016-08-31 04:16:00,
2016-08-31 00:21:00,71.3,68.2,30.02,North,0,0.0,0.0,90,0.00,CLR,SCT,0.00,WeatherDisplay:10.37,2016-08-31 04:21:00,
2016-08-31 00:26:00,71.2,68.1,30.02,North,0,0.0,0.0,90,0.00,CLR,SCT,0.00,WeatherDisplay:10.37,2016-08-31 04:26:00,
2016-08-31 00:31:00,71.2,68.1,30.02,North,0,0.0,0.0,90,0.00,CLR,SCT,0.00,WeatherDisplay:10.37,2016-08-31 04:31:00,
2016-08-31 00:36:00,71.0,68.2,30.02,North,0,0.0,0.0,91,0.00,CLR,SCT,0.00,WeatherDisplay:10.37,2016-08-31 04:36:00,
2016-08-31 00:41:00,71.0,68.2,30.01,North,0,0.0,0.0,91,0.00,CLR,SCT,0.00,WeatherDisplay:10.37,2016-08-31 04:41:00,
2016-08-31 00:46:00,70.9,68.1,30.01,North,0,0.0,0.0,91,0.00,CLR,SCT,0.00,WeatherDisplay:10.37,2016-08-31 04:46:00,
2016-08-31 00:51:00,71.0,68.6,30.01,North,0,0.0,0.0,92,0.00,CLR,SCT,0.00,WeatherDisplay:10.37,2016-08-31 04:51:00,
2016-08-31 00:56:00,70.9,68.5,30.02,North,0,0.0,0.0,92,0.00,CLR,SCT,0.00,WeatherDisplay:10.37,2016-08-31 04:56:00,
2016-08-31 01:01:00,70.9,68.5,30.02,North,0,0.0,0.0,92,0.00,CLR,SCT,0.00,WeatherDisplay:10.37,2016-08-31 05:01:00,
2016-08-31 01:06:00,70.7,68.6,30.02,North,0,0.0,0.0,93,0.00,CLR,SCT,0.00,WeatherDisplay:10.37,2016-08-31 05:06:00,
2016-08-31 01:11:00,70.7,68.6,30.02,North,0,0.0,0.0,93,0.00,CLR,SCT,0.00,WeatherDisplay:10.37,2016-08-31 05:11:00,
2016-08-31 01:16:00,70.6,68.5,30.02,North,0,0.0,0.0,93,0.00,CLR,SCT,0.00,WeatherDisplay:10.37,2016-08-31 05:16:00,
2016-08-31 01:21:00,70.6,68.8,30.01,North,0,0.0,0.0,94,0.00,CLR,SCT,0.00,WeatherDisplay:10.37,2016-08-31 05:21:00,
2016-08-31 01:26:00,70.5,68.7,30.01,North,0,0.0,0.0,94,0.00,CLR,SCT,0.00,WeatherDisplay:10.37,2016-08-31 05:26:00,
2016-08-31 01:31:00,70.5,68.7,30.01,North,0,0.0,0.0,94,0.00,CLR,SCT,0.00,WeatherDisplay:10.37,2016-08-31 05:31:00,
2016-08-31 01:36:00,70.4,68.6,30.01,North,0,0.0,0.0,94,0.00,CLR,SCT,0.00,WeatherDisplay:10.37,2016-08-31 05:36:00,
2016-08-31 01:41:00,70.4,68.6,30.01,North,0,0.0,0.0,94,0.00,CLR,SCT,0.00,WeatherDisplay:10.37,2016-08-31 05:41:00,
2016-08-31 01:46:00,70.4,68.9,30.01,North,0,0.0,0.0,95,0.00,CLR,SCT,0.00,WeatherDisplay:10.37,2016-08-31 05:46:00,
2016-08-31 01:51:00,70.4,68.9,30.01,North,0,0.0,0.0,95,0.00,CLR,SCT,0.00,WeatherDisplay:10.37,2016-08-31 05:51:00,
2016-08-31 01:56:00,70.3,68.8,30.01,North,0,0.0,0.0,95,0.00,CLR,SCT,0.00,WeatherDisplay:10.37,2016-08-31 05:56:00,
2016-08-31 02:01:00,70.3,68.8,30.01,North,0,0.0,0.0,95,0.00,CLR,SCT,0.00,WeatherDisplay:10.37,2016-08-31 06:01:00,
2016-08-31 02:06:00,70.5,69.3,30.01,North,0,0.0,0.0,96,0.00,CLR,SCT,0.00,WeatherDisplay:10.37,2016-08-31 06:06:00,
2016-08-31 02:11:00,70.5,69.3,30.01,North,0,0.0,0.0,96,0.00,CLR,SCT,0.00,WeatherDisplay:10.37,2016-08-31 06:11:00,
2016-08-31 02:21:00,71.1,69.9,30.01,North,0,0.0,0.0,96,0.00,CLR,SCT,0.00,WeatherDisplay:10.37,2016-08-31 06:21:00,
2016-08-31 02:26:00,71.4,70.2,30.01,North,0,0.0,0.0,96,0.00,CLR,SCT,0.00,WeatherDisplay:10.37,2016-08-31 06:26:00,
2016-08-31 02:31:00,71.4,70.2,30.01,North,0,0.0,0.0,96,0.00,CLR,SCT,0.00,WeatherDisplay:10.37,2016-08-31 06:31:00,
2016-08-31 02:36:00,71.4,70.5,30.01,North,0,0.0,0.0,97,0.00,CLR,SCT,0.00,WeatherDisplay:10.37,2016-08-31 06:36:00,
2016-08-31 02:41:00,71.5,70.6,30.01,North,0,0.0,0.0,97,0.00,CLR,SCT,0.00,WeatherDisplay:10.37,2016-08-31 06:41:00,
2016-08-31 02:46:00,71.5,70.6,30.01,North,0,0.0,0.0,97,0.00,CLR,SCT,0.00,WeatherDisplay:10.37,2016-08-31 06:46:00,
2016-08-31 02:51:00,71.6,70.7,30.01,North,0,0.0,0.0,97,0.00,CLR,SCT,0.00,WeatherDisplay:10.37,2016-08-31 06:51:00,
2016-08-31 02:56:00,71.6,70.7,30.00,North,0,0.0,0.0,97,0.00,CLR,SCT,0.00,WeatherDisplay:10.37,2016-08-31 06:56:00,
2016-08-31 03:01:00,71.6,70.7,30.01,North,0,0.0,0.0,97,0.00,CLR,SCT,0.00,WeatherDisplay:10.37,2016-08-31 07:01:00,
2016-08-31 03:06:00,71.7,70.8,30.01,North,0,0.0,0.0,97,0.00,CLR,SCT,0.00,WeatherDisplay:10.37,2016-08-31 07:06:00,
2016-08-31 03:11:00,71.9,71.0,30.00,North,0,0.0,0.0,97,0.00,CLR,SCT,0.00,WeatherDisplay:10.37,2016-08-31 07:11:00,
2016-08-31 03:16:00,72.0,71.1,30.00,North,0,0.0,0.0,97,0.00,CLR,SCT,0.00,WeatherDisplay:10.37,2016-08-31 07:16:00,
2016-08-31 03:21:00,72.0,71.1,30.00,North,0,0.0,0.0,97,0.00,CLR,SCT,0.00,WeatherDisplay:10.37,2016-08-31 07:21:00,
2016-08-31 03:26:00,72.1,71.2,30.00,North,0,0.0,0.0,97,0.00,CLR,SCT,0.00,WeatherDisplay:10.37,2016-08-31 07:26:00,
2016-08-31 03:31:00,72.2,71.3,30.00,North,0,0.0,0.0,97,0.00,CLR,SCT,0.00,WeatherDisplay:10.37,2016-08-31 07:31:00,
2016-08-31 03:36:00,72.2,71.3,30.00,North,0,0.0,0.0,97,0.00,CLR,SCT,0.00,WeatherDisplay:10.37,2016-08-31 07:36:00,
2016-08-31 03:41:00,72.3,71.4,29.99,North,0,0.0,0.0,97,0.00,CLR,SCT,0.00,WeatherDisplay:10.37,2016-08-31 07:41:00,
2016-08-31 03:46:00,72.3,71.4,29.99,North,0,0.0,0.0,97,0.00,CLR,SCT,0.00,WeatherDisplay:10.37,2016-08-31 07:46:00,
2016-08-31 03:51:00,72.3,71.4,29.99,North,0,0.0,0.0,97,0.00,CLR,SCT,0.00,WeatherDisplay:10.37,2016-08-31 07:51:00,
2016-08-31 03:56:00,72.4,71.5,29.99,North,0,0.0,0.0,97,0.00,CLR,SCT,0.00,WeatherDisplay:10.37,2016-08-31 07:56:00,
2016-08-31 04:01:00,72.5,71.6,29.99,North,0,0.0,0.0,97,0.00,CLR,SCT,0.00,WeatherDisplay:10.37,2016-08-31 08:01:00,
2016-08-31 04:06:00,72.5,71.6,29.99,North,0,0.0,0.0,97,0.00,CLR,SCT,0.00,WeatherDisplay:10.37,2016-08-31 08:06:00,
2016-08-31 04:16:00,72.6,71.7,29.99,East,90,0.0,0.0,97,0.00,CLR,SCT,0.00,WeatherDisplay:10.37,2016-08-31 08:16:00,
2016-08-31 04:21:00,72.6,71.7,29.99,East,90,0.0,0.0,97,0.00,CLR,SCT,0.00,WeatherDisplay:10.37,2016-08-31 08:21:00,
2016-08-31 04:26:00,72.7,71.8,29.99,East,90,0.0,0.0,97,0.00,CLR,SCT,0.00,WeatherDisplay:10.37,2016-08-31 08:26:00,
2016-08-31 04:31:00,72.7,71.8,29.98,East,90,0.0,0.0,97,0.00,CLR,SCT,0.00,WeatherDisplay:10.37,2016-08-31 08:31:00,
2016-08-31 04:36:00,72.6,71.7,29.98,East,90,0.0,0.0,97,0.00,CLR,SCT,0.00,WeatherDisplay:10.37,2016-08-31 08:36:00,
2016-08-31 04:41:00,72.6,71.7,29.99,WSW,237,4.1,4.6,97,0.00,CLR,SCT,0.00,WeatherDisplay:10.37,2016-08-31 08:41:00,
2016-08-31 04:46:00,72.5,71.6,29.99,SW,236,4.0,4.6,97,0.00,CLR,SCT,0.00,WeatherDisplay:10.37,2016-08-31 08:46:00,
2016-08-31 04:51:00,72.5,71.6,29.98,WSW,258,2.0,4.6,97,0.00,CLR,SCT,0.00,WeatherDisplay:10.37,2016-08-31 08:51:00,
2016-08-31 04:56:00,72.4,71.5,29.98,WSW,258,4.7,6.9,97,0.00,CLR,SCT,0.00,WeatherDisplay:10.37,2016-08-31 08:56:00,
2016-08-31 05:01:00,72.4,71.5,29.98,SSW,209,1.9,4.2,97,0.00,CLR,SCT,0.00,WeatherDisplay:10.37,2016-08-31 09:01:00,
2016-08-31 05:06:00,72.5,71.6,29.98,SW,223,0.0,0.0,97,0.00,CLR,SCT,0.00,WeatherDisplay:10.37,2016-08-31 09:06:00,
2016-08-31 05:11:00,72.5,71.6,29.98,SW,223,0.0,0.0,97,0.00,CLR,SCT,0.00,WeatherDisplay:10.37,2016-08-31 09:11:00,
2016-08-31 05:16:00,72.4,71.8,29.98,SSE,160,0.0,0.0,98,0.00,CLR,SCT,0.00,WeatherDisplay:10.37,2016-08-31 09:16:00,
2016-08-31 05:21:00,72.4,71.8,29.98,SSE,160,0.0,0.0,98,0.00,CLR,SCT,0.00,WeatherDisplay:10.37,2016-08-31 09:21:00,
2016-08-31 05:26:00,72.4,71.8,29.98,SSE,160,0.0,0.0,98,0.00,CLR,SCT,0.00,WeatherDisplay:10.37,2016-08-31 09:26:00,
2016-08-31 05:31:00,72.3,71.7,29.98,WSW,241,0.0,0.0,98,0.00,CLR,SCT,0.00,WeatherDisplay:10.37,2016-08-31 09:31:00,
2016-08-31 05:36:00,72.2,71.6,29.98,SSW,195,0.1,4.4,98,0.00,CLR,SCT,0.00,WeatherDisplay:10.37,2016-08-31 09:36:00,
2016-08-31 05:41:00,72.3,71.7,29.98,SE,133,0.7,4.6,98,0.00,CLR,SCT,0.00,WeatherDisplay:10.37,2016-08-31 09:41:00,
2016-08-31 05:46:00,72.2,71.6,29.98,West,264,4.2,8.1,98,0.00,CLR,SCT,0.00,WeatherDisplay:10.37,2016-08-31 09:46:00,
2016-08-31 05:51:00,72.2,71.6,29.98,SW,223,3.7,5.8,98,0.00,CLR,SCT,0.00,WeatherDisplay:10.37,2016-08-31 09:51:00,
2016-08-31 05:56:00,72.2,71.6,29.98,SW,229,2.8,3.5,98,0.00,CLR,SCT,0.00,WeatherDisplay:10.37,2016-08-31 09:56:00,
2016-08-31 06:01:00,72.2,71.6,29.98,WSW,239,0.0,0.0,98,0.00,CLR,SCT,0.00,WeatherDisplay:10.37,2016-08-31 10:01:00,
2016-08-31 06:06:00,72.1,71.5,29.98,WSW,239,0.0,0.0,98,0.00,CLR,SCT,0.00,WeatherDisplay:10.37,2016-08-31 10:06:00,
2016-08-31 06:11:00,72.0,71.4,29.98,South,186,0.0,0.0,98,0.00,CLR,SCT,0.00,WeatherDisplay:10.37,2016-08-31 10:11:00,
2016-08-31 06:16:00,72.0,71.4,29.98,SSW,212,0.0,2.3,98,0.00,CLR,SCT,0.00,WeatherDisplay:10.37,2016-08-31 10:16:00,
2016-08-31 06:21:00,72.0,71.4,29.99,SSW,212,0.0,0.0,98,0.00,CLR,SCT,0.00,WeatherDisplay:10.37,2016-08-31 10:21:00,
2016-08-31 06:26:00,71.9,71.3,29.99,SSW,212,0.0,0.0,98,0.00,CLR,SCT,0.00,WeatherDisplay:10.37,2016-08-31 10:26:00,
2016-08-31 06:31:00,72.0,71.4,29.99,SSW,212,0.0,0.0,98,0.00,CLR,SCT,0.00,WeatherDisplay:10.37,2016-08-31 10:31:00,
2016-08-31 06:36:00,72.1,71.5,29.99,SSW,212,0.0,0.0,98,0.00,CLR,SCT,0.00,WeatherDisplay:10.37,2016-08-31 10:36:00,
2016-08-31 06:41:00,72.0,71.4,29.99,WSW,256,1.6,3.5,98,0.00,CLR,SCT,0.00,WeatherDisplay:10.37,2016-08-31 10:41:00,
2016-08-31 06:46:00,71.8,71.2,29.99,SW,233,3.0,6.9,98,0.00,CLR,SCT,0.00,WeatherDisplay:10.37,2016-08-31 10:46:00,
2016-08-31 06:51:00,71.8,71.2,29.99,NW,313,0.8,3.5,98,0.00,CLR,SCT,0.00,WeatherDisplay:10.37,2016-08-31 10:51:00,
2016-08-31 06:56:00,71.8,71.2,29.99,South,171,0.0,0.0,98,0.00,CLR,SCT,0.00,WeatherDisplay:10.37,2016-08-31 10:56:00,
2016-08-31 07:01:00,71.8,71.2,29.99,SSW,200,0.5,2.7,98,0.00,CLR,SCT,0.00,WeatherDisplay:10.37,2016-08-31 11:01:00,
2016-08-31 07:06:00,71.9,71.3,29.99,South,176,0.0,0.0,98,0.00,CLR,SCT,0.00,WeatherDisplay:10.37,2016-08-31 11:06:00,
2016-08-31 07:11:00,71.9,71.3,29.99,South,176,0.0,0.0,98,0.00,CLR,SCT,0.00,WeatherDisplay:10.37,2016-08-31 11:11:00,
2016-08-31 07:16:00,71.9,71.3,29.98,SW,236,0.0,0.0,98,0.00,CLR,SCT,0.00,WeatherDisplay:10.37,2016-08-31 11:16:00,
2016-08-31 07:21:00,71.9,71.3,29.98,SW,217,0.3,2.3,98,0.00,CLR,SCT,0.00,WeatherDisplay:10.37,2016-08-31 11:21:00,
2016-08-31 07:26:00,71.9,71.3,29.98,SW,217,0.0,0.0,98,0.00,CLR,SCT,0.00,WeatherDisplay:10.37,2016-08-31 11:26:00,
2016-08-31 07:31:00,71.9,71.0,29.98,SW,217,0.0,0.0,97,0.00,CLR,SCT,0.00,WeatherDisplay:10.37,2016-08-31 11:31:00,
2016-08-31 07:36:00,72.0,71.1,29.98,SW,217,0.0,0.0,97,0.00,CLR,SCT,0.00,WeatherDisplay:10.37,2016-08-31 11:36:00,
2016-08-31 07:41:00,72.2,71.3,29.98,SW,217,0.0,0.0,97,0.00,CLR,SCT,0.00,WeatherDisplay:10.37,2016-08-31 11:41:00,
2016-08-31 07:46:00,72.3,71.1,29.98,South,176,0.2,3.5,96,0.00,CLR,SCT,0.00,WeatherDisplay:10.37,2016-08-31 11:46:00,
2016-08-31 07:51:00,72.3,71.1,29.98,SSE,162,2.8,4.6,96,0.00,CLR,SCT,0.00,WeatherDisplay:10.37,2016-08-31 11:51:00,
2016-08-31 07:56:00,72.3,71.1,29.98,South,186,0.4,2.3,96,0.00,CLR,SCT,0.00,WeatherDisplay:10.37,2016-08-31 11:56:00,
2016-08-31 08:01:00,72.5,71.0,29.98,South,186,0.0,0.0,95,0.00,CLR,SCT,0.00,WeatherDisplay:10.37,2016-08-31 12:01:00,
2016-08-31 08:06:00,72.7,70.9,29.98,West,265,1.4,4.6,94,0.00,CLR,SCT,0.00,WeatherDisplay:10.37,2016-08-31 12:06:00,
2016-08-31 08:11:00,72.9,71.1,29.98,West,275,0.0,2.3,94,0.00,CLR,SCT,0.00,WeatherDisplay:10.37,2016-08-31 12:11:00,
2016-08-31 08:16:00,73.0,70.9,29.98,SSW,212,3.8,5.8,93,0.00,CLR,SCT,0.00,WeatherDisplay:10.37,2016-08-31 12:16:00,
2016-08-31 08:21:00,73.1,71.0,29.98,West,274,0.0,2.3,93,0.00,CLR,SCT,0.00,WeatherDisplay:10.37,2016-08-31 12:21:00,
2016-08-31 08:26:00,73.2,70.7,29.98,West,261,2.9,5.8,92,0.00,CLR,SCT,0.00,WeatherDisplay:10.37,2016-08-31 12:26:00,
2016-08-31 08:31:00,73.3,70.8,29.98,SSW,210,0.9,4.6,92,0.00,CLR,SCT,0.00,WeatherDisplay:10.37,2016-08-31 12:31:00,
2016-08-31 08:36:00,73.4,70.6,29.98,WSW,241,2.9,4.6,91,0.00,CLR,SCT,0.00,WeatherDisplay:10.37,2016-08-31 12:36:00,
2016-08-31 08:41:00,73.5,70.7,29.97,SSE,164,2.7,4.6,91,0.00,CLR,SCT,0.00,WeatherDisplay:10.37,2016-08-31 12:41:00,
2016-08-31 08:46:00,73.8,70.7,29.97,SE,140,2.1,4.6,90,0.00,CLR,SCT,0.00,WeatherDisplay:10.37,2016-08-31 12:46:00,
2016-08-31 08:51:00,74.0,70.9,29.97,SE,138,5.4,8.1,90,0.00,CLR,SCT,0.00,WeatherDisplay:10.37,2016-08-31 12:51:00,
2016-08-31 08:56:00,74.2,70.4,29.97,NNW,329,5.1,6.9,88,0.00,CLR,SCT,0.00,WeatherDisplay:10.37,2016-08-31 12:56:00,
2016-08-31 09:01:00,74.5,70.7,29.97,WNW,292,1.5,4.6,88,0.00,CLR,SCT,0.00,WeatherDisplay:10.37,2016-08-31 13:01:00,
2016-08-31 09:06:00,74.7,70.6,29.97,NW,320,1.3,4.7,87,0.00,CLR,SCT,0.00,WeatherDisplay:10.37,2016-08-31 13:06:00,
2016-08-31 09:11:00,74.9,70.4,29.97,NW,326,1.2,3.5,86,0.00,CLR,SCT,0.00,WeatherDisplay:10.37,2016-08-31 13:11:00,
2016-08-31 09:16:00,75.1,70.3,29.96,WSW,254,3.3,4.6,85,0.00,CLR,SCT,0.00,WeatherDisplay:10.37,2016-08-31 13:16:00,
2016-08-31 09:21:00,75.3,70.5,29.97,WSW,243,2.9,3.5,85,0.00,CLR,SCT,0.00,WeatherDisplay:10.37,2016-08-31 13:21:00,
2016-08-31 09:26:00,75.5,70.0,29.97,SSW,210,2.7,4.6,83,0.00,CLR,SCT,0.00,WeatherDisplay:10.37,2016-08-31 13:26:00,
2016-08-31 09:31:00,75.6,70.1,29.97,West,263,0.9,4.4,83,0.00,CLR,SCT,0.00,WeatherDisplay:10.37,2016-08-31 13:31:00,
2016-08-31 09:36:00,75.9,69.6,29.97,SW,236,1.3,5.1,81,0.00,CLR,SCT,0.00,WeatherDisplay:10.37,2016-08-31 13:36:00,
2016-08-31 09:41:00,76.1,69.5,29.97,SW,220,4.2,6.9,80,0.00,CLR,SCT,0.00,WeatherDisplay:10.37,2016-08-31 13:41:00,
2016-08-31 09:46:00,76.5,69.5,29.97,WSW,246,5.3,8.1,79,0.00,CLR,SCT,0.00,WeatherDisplay:10.37,2016-08-31 13:46:00,
2016-08-31 09:51:00,76.8,69.4,29.97,SE,145,4.5,5.8,78,0.00,CLR,SCT,0.00,WeatherDisplay:10.37,2016-08-31 13:51:00,
2016-08-31 09:56:00,77.3,69.1,29.96,North,350,0.0,0.0,76,0.00,CLR,SCT,0.00,WeatherDisplay:10.37,2016-08-31 13:56:00,
2016-08-31 10:01:00,78.0,69.0,29.96,SSW,193,2.5,4.6,74,0.00,CLR,SCT,0.00,WeatherDisplay:10.37,2016-08-31 14:01:00,
2016-08-31 10:06:00,78.4,68.6,29.96,WSW,253,2.2,2.3,72,0.00,CLR,SCT,0.00,WeatherDisplay:10.37,2016-08-31 14:06:00,
2016-08-31 10:11:00,78.8,68.6,29.96,WSW,247,2.5,4.6,71,0.00,CLR,SCT,0.00,WeatherDisplay:10.37,2016-08-31 14:11:00,
2016-08-31 10:16:00,79.1,68.9,29.96,West,265,5.2,6.9,71,0.00,CLR,SCT,0.00,WeatherDisplay:10.37,2016-08-31 14:16:00,
2016-08-31 10:21:00,79.4,68.3,29.95,WSW,251,2.9,5.8,69,0.00,CLR,SCT,0.00,WeatherDisplay:10.37,2016-08-31 14:21:00,
2016-08-31 10:26:00,79.8,67.9,29.96,SSW,198,4.6,7.1,67,0.00,CLR,SCT,0.00,WeatherDisplay:10.37,2016-08-31 14:26:00,
2016-08-31 10:31:00,80.1,67.3,29.95,NE,48,0.4,4.6,65,0.00,CLR,SCT,0.00,WeatherDisplay:10.37,2016-08-31 14:31:00,
2016-08-31 10:36:00,80.2,66.9,29.95,South,181,3.6,4.6,64,0.00,CLR,SCT,0.00,WeatherDisplay:10.37,2016-08-31 14:36:00,
2016-08-31 10:41:00,80.3,67.0,29.95,WSW,237,3.2,4.6,64,0.00,CLR,SCT,0.00,WeatherDisplay:10.37,2016-08-31 14:41:00,
2016-08-31 10:46:00,80.4,66.2,29.95,SSW,203,3.5,4.8,62,0.00,CLR,SCT,0.00,WeatherDisplay:10.37,2016-08-31 14:46:00,
2016-08-31 10:51:00,80.6,66.4,29.95,WSW,243,2.8,5.5,62,0.00,CLR,SCT,0.00,WeatherDisplay:10.37,2016-08-31 14:51:00,
2016-08-31 10:56:00,81.1,66.4,29.95,WSW,254,4.6,5.8,61,0.00,CLR,SCT,0.00,WeatherDisplay:10.37,2016-08-31 14:56:00,
2016-08-31 11:01:00,81.5,66.8,29.95,North,350,3.7,5.1,61,0.00,CLR,SCT,0.00,WeatherDisplay:10.37,2016-08-31 15:01:00,
2016-08-31 11:06:00,81.6,66.4,29.94,SSE,157,4.5,5.8,60,0.00,CLR,SCT,0.00,WeatherDisplay:10.37,2016-08-31 15:06:00,
2016-08-31 11:11:00,81.6,66.4,29.95,NNW,343,3.2,3.5,60,0.00,CLR,SCT,0.00,WeatherDisplay:10.37,2016-08-31 15:11:00,
2016-08-31 11:16:00,81.6,66.4,29.94,SSE,167,3.8,5.8,60,0.00,CLR,SCT,0.00,WeatherDisplay:10.37,2016-08-31 15:16:00,